Time;durP1;ratioP1;P1;durP2;ratioP2;P2;SDS_P1;SDS_P2;PMS_P1;PMS_P2;Temp;Humidity;BMP_temperature;BMP_pressure;BME280_temperature;BME280_humidity;BME280_pressure;Samples;Min_cycle;Max_cycle;Signal;HPM_P1;HPM_P2
2021/12/18 00:00:53;;;;;;;2.15;0.75;;;22.10;32.80;;;;;;5135412;27;20050;-66
2021/12/18 00:03:20;;;;;;;0.73;0.73;;;22.10;32.80;;;;;;5151165;27;20046;-66
2021/12/18 00:05:48;;;;;;;0.63;0.63;;;22.10;32.80;;;;;;5123286;28;20051;-66
2021/12/18 00:08:15;;;;;;;1.90;0.60;;;22.10;32.80;;;;;;5130379;28;20126;-65
2021/12/18 00:10:45;;;;;;;0.95;0.80;;;22.10;33.00;;;;;;5128960;28;20073;-66
2021/12/18 00:13:13;;;;;;;1.03;0.97;;;22.00;32.80;;;;;;5130575;28;20043;-66
2021/12/18 00:15:40;;;;;;;1.42;0.85;;;22.00;32.90;;;;;;5131621;27;20103;-65
2021/12/18 00:22:15;;;;;;;0.93;0.80;;;22.00;32.80;;;;;;5131468;27;20118;-66
2021/12/18 00:24:42;;;;;;;0.80;0.80;;;22.10;32.90;;;;;;5110792;28;20070;-66
2021/12/18 00:27:09;;;;;;;1.75;0.77;;;22.10;32.90;;;;;;5128518;28;20483;-66
2021/12/18 00:29:37;;;;;;;0.82;0.63;;;22.10;32.90;;;;;;5130529;28;20485;-66
2021/12/18 00:35:46;;;;;;;0.50;0.50;;;22.10;32.90;;;;;;5129527;27;20563;-66
2021/12/18 00:38:13;;;;;;;1.15;0.80;;;22.10;32.80;;;;;;5151021;27;20093;-66
2021/12/18 00:40:46;;;;;;;0.70;0.70;;;22.10;32.90;;;;;;5143504;27;20047;-66
2021/12/18 00:43:33;;;;;;;1.02;1.00;;;22.10;32.90;;;;;;5129952;28;20526;-66
2021/12/18 00:46:01;;;;;;;1.25;0.75;;;22.10;32.90;;;;;;5126505;28;20070;-66
2021/12/18 00:48:28;;;;;;;1.25;1.08;;;22.10;32.90;;;;;;5130184;28;20058;-66
2021/12/18 00:50:56;;;;;;;0.60;0.60;;;22.10;32.90;;;;;;5128247;27;20048;-65
2021/12/18 00:53:23;;;;;;;0.85;0.70;;;22.10;32.90;;;;;;5130278;28;20074;-66
2021/12/18 00:55:52;;;;;;;1.30;0.93;;;22.00;32.90;;;;;;5126387;27;20126;-65
2021/12/18 00:58:19;;;;;;;0.50;0.50;;;22.00;32.90;;;;;;5130013;28;20500;-66
2021/12/18 01:00:51;;;;;;;0.75;0.75;;;22.10;32.90;;;;;;5130034;28;20062;-65
2021/12/18 01:03:20;;;;;;;0.70;0.70;;;22.00;32.90;;;;;;5130227;28;20380;-66
2021/12/18 01:05:49;;;;;;;0.60;0.60;;;22.00;32.90;;;;;;5119827;28;20481;-65
2021/12/18 01:08:17;;;;;;;1.67;0.93;;;22.00;32.90;;;;;;5125933;28;20065;-66
2021/12/18 01:11:09;;;;;;;0.70;0.70;;;22.00;32.90;;;;;;5131838;27;20548;-65
2021/12/18 01:13:40;;;;;;;0.73;0.68;;;22.00;32.90;;;;;;5132443;27;20046;-66
2021/12/18 01:16:15;;;;;;;0.68;0.52;;;22.00;32.90;;;;;;5110675;28;20074;-65
2021/12/18 01:24:18;;;;;;;0.60;0.60;;;22.00;32.90;;;;;;5113062;28;20039;-66
2021/12/18 01:26:45;;;;;;;0.80;0.80;;;22.00;32.90;;;;;;5110732;28;20048;-66
2021/12/18 01:29:12;;;;;;;0.98;0.88;;;22.00;32.90;;;;;;5113428;28;20112;-66
2021/12/18 01:31:39;;;;;;;0.70;0.70;;;21.90;32.90;;;;;;5111886;28;20113;-66
2021/12/18 01:34:06;;;;;;;0.60;0.60;;;21.90;32.80;;;;;;5112339;28;20553;-65
2021/12/18 01:40:29;;;;;;;0.60;0.60;;;21.90;32.80;;;;;;5133485;27;20069;-65
2021/12/18 01:46:07;;;;;;;0.60;0.60;;;21.90;32.80;;;;;;5131011;27;20082;-65
2021/12/18 01:51:32;;;;;;;1.55;0.80;;;21.90;32.70;;;;;;5132156;27;20043;-66
2021/12/18 01:54:00;;;;;;;0.98;0.80;;;21.90;32.70;;;;;;5132617;27;20051;-66
2021/12/18 01:56:28;;;;;;;0.85;0.80;;;21.90;32.70;;;;;;5130281;27;20077;-66
2021/12/18 01:58:56;;;;;;;0.77;0.77;;;21.90;32.70;;;;;;5133224;27;20083;-66
2021/12/18 02:05:28;;;;;;;1.15;0.85;;;21.90;32.70;;;;;;5130927;27;20094;-66
2021/12/18 02:07:55;;;;;;;0.95;0.77;;;21.90;32.70;;;;;;5131240;27;20099;-66
2021/12/18 02:10:26;;;;;;;0.88;0.77;;;21.90;32.80;;;;;;5153984;27;20050;-65
2021/12/18 02:13:08;;;;;;;0.90;0.80;;;21.90;32.80;;;;;;5152280;27;20078;-66
2021/12/18 02:21:15;;;;;;;0.95;0.60;;;21.90;32.70;;;;;;5151833;27;20398;-65
2021/12/18 02:23:43;;;;;;;0.75;0.70;;;21.90;32.70;;;;;;5153258;27;20091;-65
2021/12/18 02:26:12;;;;;;;0.80;0.70;;;21.90;32.70;;;;;;5150430;27;20046;-65
2021/12/18 02:28:43;;;;;;;0.60;0.60;;;21.90;32.70;;;;;;5152985;27;20055;-66
2021/12/18 02:31:10;;;;;;;1.45;0.57;;;21.90;32.60;;;;;;5152350;27;20072;-65
2021/12/18 02:33:37;;;;;;;1.02;0.82;;;21.90;32.60;;;;;;5153066;27;20074;-65
2021/12/18 02:36:08;;;;;;;0.63;0.60;;;21.90;32.60;;;;;;5126200;27;20050;-65
2021/12/18 02:39:06;;;;;;;;;;;21.90;32.60;;;;;;5131929;27;20086;-66
2021/12/18 02:41:34;;;;;;;1.77;0.88;;;21.90;32.60;;;;;;5130715;27;19962;-65
2021/12/18 02:44:04;;;;;;;1.00;0.60;;;21.90;32.60;;;;;;5152429;27;20091;-66
2021/12/18 02:50:22;;;;;;;;;;;21.80;32.60;;;;;;5151554;27;20142;-65
2021/12/18 02:52:49;;;;;;;0.57;0.57;;;21.80;32.50;;;;;;5151893;27;19919;-66
2021/12/18 02:55:17;;;;;;;0.93;0.70;;;21.80;32.60;;;;;;5151004;27;20047;-66
2021/12/18 02:57:44;;;;;;;1.67;0.85;;;21.80;32.60;;;;;;5150693;27;20487;-66
2021/12/18 03:00:11;;;;;;;0.68;0.43;;;21.80;32.50;;;;;;5134512;27;20524;-66
2021/12/18 03:09:16;;;;;;;1.00;0.85;;;21.80;32.50;;;;;;5152481;27;20050;-65
2021/12/18 03:21:00;;;;;;;0.70;0.70;;;21.70;32.50;;;;;;5152964;27;20042;-65
2021/12/18 03:23:11;;;;;;;1.40;0.75;;;21.80;32.50;;;;;;5151548;27;20438;-66
2021/12/18 03:25:39;;;;;;;0.88;0.60;;;21.80;32.50;;;;;;5150339;27;20111;-65
2021/12/18 03:28:07;;;;;;;0.73;0.57;;;21.80;32.40;;;;;;5151259;27;20483;-65
2021/12/18 03:30:36;;;;;;;0.60;0.60;;;21.70;32.40;;;;;;5152354;27;20095;-65
2021/12/18 03:33:04;;;;;;;0.57;0.50;;;21.70;32.40;;;;;;5132291;27;20046;-65
2021/12/18 03:35:31;;;;;;;0.80;0.75;;;21.80;32.40;;;;;;5150028;27;20073;-65
2021/12/18 03:45:47;;;;;;;0.73;0.60;;;21.80;32.40;;;;;;5129290;27;20054;-65
2021/12/18 03:48:14;;;;;;;0.80;0.70;;;21.70;32.40;;;;;;5129318;27;20051;-65
2021/12/18 03:50:43;;;;;;;0.80;0.80;;;21.70;32.40;;;;;;5152237;27;20149;-66
2021/12/18 03:53:10;;;;;;;1.15;0.60;;;21.70;32.40;;;;;;5151209;27;20508;-65
2021/12/18 03:55:37;;;;;;;0.63;0.60;;;21.70;32.40;;;;;;5149606;27;20043;-65
2021/12/18 03:58:04;;;;;;;1.65;0.85;;;21.70;32.40;;;;;;5150998;27;20446;-65
2021/12/18 04:00:31;;;;;;;1.15;1.00;;;21.70;32.40;;;;;;5151999;27;20107;-65
2021/12/18 04:03:39;;;;;;;1.27;0.80;;;21.70;32.50;;;;;;5151007;27;20042;-66
2021/12/18 04:06:07;;;;;;;0.70;0.70;;;21.70;32.40;;;;;;5148925;27;20050;-65
2021/12/18 04:08:34;;;;;;;2.50;0.70;;;21.70;32.40;;;;;;5151516;27;20050;-65
2021/12/18 04:11:01;;;;;;;0.60;0.60;;;21.70;32.40;;;;;;5149684;27;20081;-65
2021/12/18 04:13:30;;;;;;;1.25;1.00;;;21.70;32.40;;;;;;5151654;27;20320;-65
2021/12/18 04:15:59;;;;;;;0.80;0.60;;;21.70;32.40;;;;;;5130748;27;20100;-65
2021/12/18 04:18:26;;;;;;;0.73;0.63;;;21.70;32.40;;;;;;5151397;27;20043;-66
2021/12/18 04:20:53;;;;;;;0.70;0.70;;;21.70;33.00;;;;;;5151649;27;20556;-66
2021/12/18 04:23:20;;;;;;;0.70;0.70;;;21.70;32.40;;;;;;5151271;27;20519;-65
2021/12/18 04:25:48;;;;;;;0.65;0.65;;;21.70;32.40;;;;;;5148760;27;20525;-66
2021/12/18 04:28:15;;;;;;;0.50;0.50;;;21.70;32.40;;;;;;5150975;27;20104;-66
2021/12/18 04:30:42;;;;;;;0.85;0.70;;;21.80;32.50;;;;;;5151981;27;20089;-66
2021/12/18 04:33:09;;;;;;;0.40;0.40;;;21.70;32.40;;;;;;5151234;27;20119;-66
2021/12/18 04:35:37;;;;;;;0.47;0.47;;;21.70;32.40;;;;;;5147040;27;20134;-66
2021/12/18 04:38:04;;;;;;;0.73;0.50;;;21.70;32.50;;;;;;5130477;28;20043;-65
2021/12/18 04:40:31;;;;;;;1.40;0.70;;;21.70;32.50;;;;;;5112774;28;20445;-66
2021/12/18 04:43:39;;;;;;;0.50;0.50;;;21.70;32.50;;;;;;5112208;28;20043;-66
2021/12/18 04:46:06;;;;;;;0.52;0.52;;;21.70;32.50;;;;;;5132152;27;20043;-65
2021/12/18 04:48:33;;;;;;;1.45;0.80;;;21.70;32.50;;;;;;5134385;27;20043;-66
2021/12/18 04:51:00;;;;;;;0.50;0.50;;;21.70;32.50;;;;;;5133923;27;20054;-66
2021/12/18 04:53:27;;;;;;;0.85;0.80;;;21.70;32.50;;;;;;5134659;27;20039;-65
2021/12/18 04:55:55;;;;;;;0.85;0.60;;;21.70;32.50;;;;;;5112912;27;20047;-66
2021/12/18 04:58:22;;;;;;;0.68;0.60;;;21.70;32.50;;;;;;5154862;27;20047;-65
2021/12/18 05:00:50;;;;;;;1.10;0.60;;;21.70;32.60;;;;;;5155452;27;20463;-65
2021/12/18 05:03:18;;;;;;;0.70;0.68;;;21.70;32.60;;;;;;5136154;27;20089;-65
2021/12/18 05:05:47;;;;;;;1.52;0.68;;;21.70;32.60;;;;;;5152628;27;20043;-66
2021/12/18 05:08:14;;;;;;;0.88;0.85;;;21.70;32.60;;;;;;5154789;27;20511;-65
2021/12/18 05:10:41;;;;;;;0.60;0.50;;;21.70;32.60;;;;;;5154701;27;20042;-65
2021/12/18 05:13:30;;;;;;;1.05;0.40;;;21.70;32.60;;;;;;5154534;27;20102;-65
2021/12/18 05:15:57;;;;;;;0.60;0.60;;;21.70;32.60;;;;;;5151660;27;20051;-65
2021/12/18 05:18:24;;;;;;;1.48;0.77;;;21.70;32.60;;;;;;5154865;27;20054;-65
2021/12/18 05:20:51;;;;;;;1.52;0.63;;;21.70;32.60;;;;;;5154345;27;20035;-66
2021/12/18 05:23:18;;;;;;;0.93;0.47;;;21.70;32.60;;;;;;5154655;27;20091;-66
2021/12/18 05:25:46;;;;;;;1.33;0.90;;;21.70;32.60;;;;;;5151571;27;20039;-65
2021/12/18 05:28:13;;;;;;;1.10;0.82;;;21.70;32.60;;;;;;5153928;27;20101;-65
2021/12/18 05:30:41;;;;;;;0.75;0.60;;;21.70;32.60;;;;;;5154167;27;20054;-65
2021/12/18 05:33:08;;;;;;;0.60;0.60;;;21.70;32.60;;;;;;5135749;27;20494;-66
2021/12/18 05:35:35;;;;;;;0.57;0.57;;;21.70;32.60;;;;;;5150834;27;20046;-65
2021/12/18 05:45:24;;;;;;;0.80;0.70;;;21.70;32.60;;;;;;5110781;28;20403;-65
2021/12/18 05:47:52;;;;;;;1.13;0.90;;;21.70;32.60;;;;;;5112164;28;20560;-65
2021/12/18 05:50:21;;;;;;;0.68;0.65;;;21.60;32.60;;;;;;5113289;28;20047;-65
2021/12/18 05:52:48;;;;;;;0.57;0.50;;;21.60;32.60;;;;;;5131834;27;20472;-66
2021/12/18 05:55:18;;;;;;;0.95;0.52;;;21.60;32.60;;;;;;5130412;27;20483;-65
2021/12/18 05:57:45;;;;;;;0.43;0.43;;;21.70;32.70;;;;;;5150332;27;20082;-65
2021/12/18 06:00:13;;;;;;;0.90;0.60;;;21.60;32.60;;;;;;5154079;27;20384;-65
2021/12/18 06:02:40;;;;;;;1.42;0.65;;;21.60;32.60;;;;;;5153309;27;20392;-66
2021/12/18 06:05:08;;;;;;;0.63;0.63;;;21.60;32.60;;;;;;5152218;27;20095;-65
2021/12/18 06:15:18;;;;;;;0.70;0.70;;;21.60;32.20;;;;;;5151703;27;20084;-66
2021/12/18 06:17:45;;;;;;;1.20;1.05;;;21.70;32.00;;;;;;5139532;27;20122;-66
2021/12/18 06:20:12;;;;;;;0.52;0.52;;;21.70;32.00;;;;;;5132967;27;20125;-66
2021/12/18 06:22:39;;;;;;;0.82;0.82;;;21.70;31.90;;;;;;5131820;27;20103;-66
2021/12/18 06:25:07;;;;;;;0.80;0.80;;;21.70;31.80;;;;;;5131217;27;20914;-66
2021/12/18 06:31:16;;;;;;;0.50;0.50;;;21.60;31.70;;;;;;5132056;27;20108;-65
2021/12/18 06:33:43;;;;;;;0.80;0.80;;;21.60;31.80;;;;;;5132149;27;20047;-65
2021/12/18 06:36:10;;;;;;;1.55;0.75;;;21.60;31.80;;;;;;5133460;27;20073;-66
2021/12/18 06:38:38;;;;;;;0.40;0.32;;;21.60;31.90;;;;;;5153053;27;20046;-65
2021/12/18 06:41:05;;;;;;;0.60;0.60;;;21.60;31.90;;;;;;5151775;27;20133;-66
2021/12/18 06:43:35;;;;;;;0.60;0.60;;;21.60;31.80;;;;;;5152757;27;20046;-65
2021/12/18 06:46:02;;;;;;;;;;;21.60;31.90;;;;;;5134684;27;20047;-65
2021/12/18 06:48:29;;;;;;;0.57;0.57;;;21.60;31.80;;;;;;5149902;27;20412;-65
2021/12/18 06:50:56;;;;;;;0.77;0.77;;;21.70;31.80;;;;;;5152668;27;20099;-65
2021/12/18 06:53:24;;;;;;;1.20;0.52;;;21.70;31.70;;;;;;5152514;27;20095;-66
2021/12/18 06:55:51;;;;;;;0.75;0.75;;;21.70;31.70;;;;;;5150356;27;20043;-66
2021/12/18 06:58:20;;;;;;;0.93;0.50;;;21.70;31.60;;;;;;5152344;27;20047;-66
2021/12/18 07:00:48;;;;;;;0.65;0.65;;;21.80;31.60;;;;;;5152550;27;20129;-66
2021/12/18 07:03:15;;;;;;;1.10;1.00;;;21.80;31.50;;;;;;5151984;27;20456;-66
2021/12/18 07:05:42;;;;;;;0.90;0.90;;;21.90;31.50;;;;;;5150505;27;20462;-66
2021/12/18 07:08:09;;;;;;;0.85;0.68;;;21.90;31.40;;;;;;5151510;27;20046;-66
2021/12/18 07:10:37;;;;;;;1.77;0.80;;;21.90;31.30;;;;;;5152448;27;20099;-66
2021/12/18 07:16:08;;;;;;;0.98;0.98;;;22.00;31.20;;;;;;5149579;27;20075;-66
2021/12/18 07:18:35;;;;;;;0.93;0.90;;;22.10;31.20;;;;;;5152260;27;20111;-66
2021/12/18 07:21:03;;;;;;;0.77;0.77;;;22.10;31.10;;;;;;5152254;27;20050;-65
2021/12/18 07:23:30;;;;;;;1.45;0.90;;;22.10;30.90;;;;;;5152143;27;20091;-66
2021/12/18 07:25:58;;;;;;;0.80;0.80;;;22.20;31.00;;;;;;5149694;27;20047;-65
2021/12/18 07:28:25;;;;;;;0.82;0.82;;;22.20;30.80;;;;;;5151888;27;20084;-66
2021/12/18 07:30:52;;;;;;;0.98;0.98;;;22.30;30.70;;;;;;5152398;27;20054;-66
2021/12/18 07:33:20;;;;;;;1.20;0.90;;;22.40;30.70;;;;;;5151830;27;20050;-66
2021/12/18 07:35:47;;;;;;;0.90;0.90;;;22.40;30.50;;;;;;5147113;27;20081;-65
2021/12/18 07:38:16;;;;;;;0.93;0.93;;;22.50;30.40;;;;;;5130540;27;20488;-66
2021/12/18 07:40:43;;;;;;;1.08;0.93;;;22.50;30.40;;;;;;5131159;27;20093;-66
2021/12/18 07:43:10;;;;;;;0.93;0.90;;;22.60;30.30;;;;;;5131063;27;20092;-66
2021/12/18 07:45:38;;;;;;;1.73;1.20;;;22.70;30.30;;;;;;5129201;27;20119;-65
2021/12/18 07:48:06;;;;;;;1.38;0.95;;;22.70;30.10;;;;;;5130397;27;20078;-66
2021/12/18 07:50:33;;;;;;;1.02;1.00;;;22.80;30.10;;;;;;5131660;27;20079;-66
2021/12/18 07:53:41;;;;;;;1.08;1.02;;;22.80;30.00;;;;;;5130648;27;20039;-66
2021/12/18 07:56:11;;;;;;;0.70;0.70;;;22.90;30.00;;;;;;5128641;27;20097;-66
2021/12/18 07:58:39;;;;;;;1.42;0.90;;;22.90;29.90;;;;;;5130784;28;20433;-66
2021/12/18 08:01:06;;;;;;;0.85;0.85;;;23.00;29.90;;;;;;5131856;28;20070;-66
2021/12/18 08:03:34;;;;;;;2.03;1.13;;;23.00;29.80;;;;;;5131123;28;20051;-66
2021/12/18 08:06:01;;;;;;;1.00;1.00;;;23.10;29.80;;;;;;5128803;28;20047;-65
2021/12/18 08:08:28;;;;;;;1.13;1.02;;;23.10;29.70;;;;;;5130560;28;20545;-66
2021/12/18 08:10:56;;;;;;;1.13;1.02;;;23.20;29.70;;;;;;5131118;28;20396;-66
2021/12/18 08:13:23;;;;;;;0.90;0.90;;;23.20;29.60;;;;;;5130912;28;20048;-66
2021/12/18 08:15:50;;;;;;;0.82;0.82;;;23.30;29.60;;;;;;5128640;28;20088;-66
2021/12/18 08:18:17;;;;;;;1.13;1.02;;;23.30;29.50;;;;;;5112200;28;20130;-66
2021/12/18 08:20:45;;;;;;;0.88;0.88;;;23.30;29.40;;;;;;5117003;27;20100;-65
2021/12/18 08:23:12;;;;;;;0.93;0.93;;;23.40;29.30;;;;;;5134724;27;20047;-66
2021/12/18 08:25:39;;;;;;;1.02;0.98;;;23.40;29.30;;;;;;5132743;27;20133;-65
2021/12/18 08:28:07;;;;;;;1.83;1.38;;;23.50;29.20;;;;;;5154904;27;20050;-66
2021/12/18 08:30:36;;;;;;;1.00;0.95;;;23.50;29.20;;;;;;5155921;27;20104;-66
2021/12/18 08:36:27;;;;;;;0.98;0.88;;;23.60;29.10;;;;;;5151410;27;20098;-66
2021/12/18 08:38:54;;;;;;;0.88;0.88;;;23.60;29.00;;;;;;5155304;27;20076;-66
2021/12/18 08:41:22;;;;;;;1.52;1.05;;;23.70;29.00;;;;;;5155064;27;20042;-66
2021/12/18 08:43:50;;;;;;;0.90;0.90;;;23.70;28.90;;;;;;5155154;27;20100;-66
2021/12/18 08:46:17;;;;;;;1.08;0.95;;;23.80;28.90;;;;;;5152796;27;20039;-66
2021/12/18 08:48:44;;;;;;;1.02;1.02;;;23.80;28.80;;;;;;5136966;27;20046;-66
2021/12/18 08:51:11;;;;;;;1.30;1.00;;;23.80;28.70;;;;;;5155535;27;20096;-66
2021/12/18 08:53:39;;;;;;;0.88;0.80;;;23.80;28.70;;;;;;5155445;27;20088;-66
2021/12/18 08:56:06;;;;;;;0.98;0.88;;;23.80;28.70;;;;;;5152722;27;20050;-66
2021/12/18 08:58:33;;;;;;;1.08;1.08;;;23.90;28.80;;;;;;5154910;27;20452;-66
2021/12/18 09:01:01;;;;;;;1.13;1.02;;;23.90;28.70;;;;;;5155071;27;20095;-66
2021/12/18 09:03:28;;;;;;;1.10;0.95;;;24.00;28.70;;;;;;5155102;27;20043;-66
2021/12/18 09:05:56;;;;;;;1.00;0.88;;;24.00;28.60;;;;;;5134038;27;20047;-66
2021/12/18 09:08:23;;;;;;;1.13;0.77;;;24.00;28.60;;;;;;5154368;27;20074;-66
2021/12/18 09:10:51;;;;;;;0.80;0.80;;;24.10;28.50;;;;;;5155308;27;20407;-66
2021/12/18 09:13:18;;;;;;;1.02;1.00;;;24.10;28.50;;;;;;5155123;27;20059;-66
2021/12/18 09:15:46;;;;;;;1.23;1.13;;;24.10;28.40;;;;;;5140156;27;20047;-66
2021/12/18 09:18:13;;;;;;;1.30;1.20;;;24.20;28.40;;;;;;5154248;27;20091;-66
2021/12/18 09:20:41;;;;;;;1.15;1.00;;;24.20;28.40;;;;;;5154842;27;20487;-66
2021/12/18 09:23:08;;;;;;;1.13;1.02;;;24.20;28.30;;;;;;5136114;27;20086;-66
2021/12/18 09:25:37;;;;;;;1.10;1.02;;;24.20;28.30;;;;;;5152613;27;20047;-67
2021/12/18 09:28:04;;;;;;;0.77;0.75;;;24.30;28.30;;;;;;5135952;27;20051;-66
2021/12/18 09:30:32;;;;;;;1.52;1.25;;;24.30;28.30;;;;;;5153360;27;20101;-66
2021/12/18 09:32:59;;;;;;;0.70;0.70;;;24.30;28.20;;;;;;5136227;27;20050;-66
2021/12/18 09:35:27;;;;;;;1.30;1.20;;;24.40;28.20;;;;;;5152343;27;20057;-66
2021/12/18 09:37:54;;;;;;;1.15;1.05;;;24.40;28.10;;;;;;5130416;27;20044;-66
2021/12/18 09:40:22;;;;;;;1.20;1.02;;;24.40;28.10;;;;;;5131175;27;20043;-66
2021/12/18 09:42:49;;;;;;;0.77;0.77;;;24.50;28.10;;;;;;5153361;27;20038;-66
2021/12/18 09:45:18;;;;;;;0.90;0.63;;;24.50;28.10;;;;;;5152647;27;20133;-66
2021/12/18 09:47:46;;;;;;;1.08;1.02;;;24.50;28.00;;;;;;5153365;27;20046;-66
2021/12/18 09:50:16;;;;;;;1.08;0.90;;;24.50;27.90;;;;;;5154057;27;20051;-66
2021/12/18 09:52:43;;;;;;;0.90;0.82;;;24.50;27.90;;;;;;5154278;27;20050;-66
2021/12/18 09:55:11;;;;;;;0.88;0.88;;;24.60;28.00;;;;;;5133982;27;20054;-66
2021/12/18 09:57:39;;;;;;;0.77;0.77;;;24.60;27.90;;;;;;5153403;27;20051;-66
2021/12/18 10:00:14;;;;;;;1.50;0.93;;;24.70;27.90;;;;;;5154132;27;20095;-66
2021/12/18 10:02:42;;;;;;;2.67;1.10;;;24.60;27.80;;;;;;5153491;27;20050;-67
2021/12/18 10:05:38;;;;;;;1.02;0.90;;;24.70;27.80;;;;;;5152186;27;20424;-67
2021/12/18 10:08:17;;;;;;;0.80;0.73;;;24.70;27.80;;;;;;5152927;27;20072;-67
2021/12/18 10:11:04;;;;;;;0.80;0.80;;;24.70;27.70;;;;;;5153579;27;20047;-67
2021/12/18 10:14:02;;;;;;;1.50;1.00;;;24.70;27.70;;;;;;5153420;27;20407;-66
2021/12/18 10:16:30;;;;;;;0.75;0.73;;;24.70;27.60;;;;;;5151531;27;20136;-66
2021/12/18 10:18:59;;;;;;;1.67;1.52;;;24.70;27.70;;;;;;5153640;27;20099;-66
2021/12/18 10:25:08;;;;;;;1.10;0.95;;;24.80;27.70;;;;;;5151686;27;20528;-66
2021/12/18 10:27:37;;;;;;;1.17;1.08;;;24.80;27.70;;;;;;5152593;27;20388;-66
2021/12/18 10:30:20;;;;;;;1.00;1.00;;;24.80;27.70;;;;;;5153147;27;20539;-66
2021/12/18 10:33:10;;;;;;;1.50;0.82;;;24.80;27.60;;;;;;5153748;27;20047;-67
2021/12/18 10:35:50;;;;;;;0.68;0.68;;;24.90;27.60;;;;;;5148744;27;20504;-66
2021/12/18 10:38:45;;;;;;;0.82;0.82;;;24.90;27.70;;;;;;5111347;28;20040;-67
2021/12/18 10:41:37;;;;;;;0.75;0.75;;;24.90;27.60;;;;;;5111693;28;20121;-66
2021/12/18 10:44:12;;;;;;;1.40;1.30;;;24.90;27.90;;;;;;5111928;28;20407;-66
2021/12/18 10:46:43;;;;;;;1.25;0.93;;;24.90;27.40;;;;;;5109452;28;20546;-66
2021/12/18 10:49:11;;;;;;;;;;;25.00;27.40;;;;;;5112505;28;20080;-66
2021/12/18 10:51:40;;;;;;;1.20;1.05;;;25.00;27.40;;;;;;5111358;28;19966;-66
2021/12/18 10:54:18;;;;;;;0.80;0.80;;;25.00;27.40;;;;;;5111107;28;20043;-66
2021/12/18 10:56:52;;;;;;;1.20;0.93;;;25.00;27.40;;;;;;5091430;28;20550;-67
2021/12/18 10:59:26;;;;;;;0.90;0.90;;;25.00;27.40;;;;;;5111247;28;20055;-66
2021/12/18 11:01:56;;;;;;;0.95;0.80;;;25.00;27.30;;;;;;5110493;28;20051;-66
2021/12/18 11:04:29;;;;;;;0.63;0.63;;;25.10;27.30;;;;;;5111121;28;20051;-66
2021/12/18 11:06:57;;;;;;;0.80;0.80;;;25.10;27.30;;;;;;5108947;28;20054;-67
2021/12/18 11:09:32;;;;;;;1.70;0.80;;;25.10;27.20;;;;;;5111831;28;20392;-66
2021/12/18 11:14:42;;;;;;;0.85;0.80;;;25.20;27.20;;;;;;5110167;28;20435;-66
2021/12/18 11:17:15;;;;;;;1.05;0.80;;;25.20;27.10;;;;;;5091169;28;20055;-66
2021/12/18 11:19:43;;;;;;;0.82;0.80;;;25.20;27.10;;;;;;5093672;28;20404;-66
2021/12/18 11:22:14;;;;;;;0.75;0.75;;;25.20;27.00;;;;;;5111234;28;20051;-67
2021/12/18 11:25:03;;;;;;;0.70;0.70;;;25.30;27.10;;;;;;5109794;28;20044;-66
2021/12/18 11:27:32;;;;;;;0.77;0.77;;;25.30;27.00;;;;;;5109527;28;20043;-66
2021/12/18 11:30:09;;;;;;;3.28;0.93;;;25.30;27.00;;;;;;5111083;28;20039;-66
2021/12/18 11:36:16;;;;;;;0.82;0.82;;;25.30;27.00;;;;;;5111793;27;20145;-66
2021/12/18 11:38:45;;;;;;;0.90;0.90;;;25.40;27.00;;;;;;5131528;27;20047;-66
2021/12/18 11:41:18;;;;;;;0.95;0.77;;;25.40;26.90;;;;;;5130704;27;20545;-66
2021/12/18 11:43:46;;;;;;;0.73;0.73;;;25.40;26.90;;;;;;5132042;27;20051;-66
2021/12/18 11:46:34;;;;;;;0.88;0.88;;;25.40;26.90;;;;;;5129032;27;20051;-67
2021/12/18 11:49:06;;;;;;;1.00;0.52;;;25.40;26.80;;;;;;5131466;27;20372;-66
2021/12/18 11:51:34;;;;;;;1.30;0.90;;;25.50;26.90;;;;;;5130286;27;20134;-66
2021/12/18 11:54:03;;;;;;;1.20;0.80;;;25.50;26.90;;;;;;5130714;27;20096;-67
2021/12/18 11:56:49;;;;;;;0.80;0.80;;;25.50;26.80;;;;;;5127971;27;20043;-66
2021/12/18 11:59:38;;;;;;;0.82;0.82;;;25.50;26.80;;;;;;5113580;28;20550;-66
2021/12/18 12:05:48;;;;;;;1.25;0.85;;;25.50;26.80;;;;;;5129104;28;20035;-66
2021/12/18 12:08:35;;;;;;;0.98;0.70;;;25.50;26.90;;;;;;5151509;27;20088;-67
2021/12/18 12:11:26;;;;;;;0.70;0.70;;;25.60;26.80;;;;;;5152178;27;20051;-67
2021/12/18 12:13:58;;;;;;;0.88;0.88;;;25.60;26.70;;;;;;5152107;27;20445;-66
2021/12/18 12:16:59;;;;;;;1.10;1.00;;;25.60;26.70;;;;;;5149140;27;20124;-67
2021/12/18 12:19:46;;;;;;;;;;;25.50;26.60;;;;;;5151383;27;20533;-67
2021/12/18 12:26:01;;;;;;;0.98;0.85;;;25.50;26.60;;;;;;5148984;27;20073;-66
2021/12/18 12:28:28;;;;;;;0.52;0.52;;;25.50;26.60;;;;;;5151338;27;20102;-66
2021/12/18 12:31:10;;;;;;;0.82;0.82;;;25.50;26.60;;;;;;5152070;27;20150;-66
2021/12/18 12:33:37;;;;;;;0.98;0.80;;;25.50;26.50;;;;;;5151300;27;20096;-66
2021/12/18 12:36:23;;;;;;;0.90;0.90;;;25.50;26.60;;;;;;5143873;27;20129;-66
2021/12/18 12:39:00;;;;;;;0.80;0.80;;;25.50;26.50;;;;;;5131267;28;20112;-66
2021/12/18 12:41:49;;;;;;;1.20;1.10;;;25.50;26.60;;;;;;5130406;28;20051;-66
2021/12/18 12:44:47;;;;;;;0.93;0.90;;;25.50;26.60;;;;;;5129927;28;20561;-66
2021/12/18 12:47:22;;;;;;;1.08;0.95;;;25.60;26.60;;;;;;5127453;28;20096;-66
2021/12/18 12:50:12;;;;;;;0.80;0.80;;;25.60;26.60;;;;;;5131172;27;20627;-66
2021/12/18 12:52:59;;;;;;;1.20;1.10;;;25.60;26.60;;;;;;5129670;28;20093;-67
2021/12/18 12:55:38;;;;;;;1.00;1.00;;;25.60;26.40;;;;;;5128567;28;20078;-67
2021/12/18 12:58:19;;;;;;;1.02;0.80;;;25.60;26.40;;;;;;5130111;28;20096;-66
2021/12/18 13:00:52;;;;;;;0.90;0.88;;;25.60;26.40;;;;;;5130880;28;20055;-66
2021/12/18 13:03:26;;;;;;;1.38;1.25;;;25.50;26.30;;;;;;5130404;28;20047;-66
2021/12/18 13:05:58;;;;;;;0.90;0.90;;;25.50;26.30;;;;;;5130774;27;20058;-66
2021/12/18 13:08:27;;;;;;;0.95;0.95;;;25.50;26.30;;;;;;5154297;27;20047;-66
2021/12/18 13:10:58;;;;;;;0.90;0.90;;;25.50;26.30;;;;;;5155737;27;20078;-66
2021/12/18 13:13:28;;;;;;;1.10;1.08;;;25.50;26.30;;;;;;5155077;27;20047;-67
2021/12/18 13:16:10;;;;;;;0.82;0.80;;;25.50;26.30;;;;;;5152782;27;20099;-67
2021/12/18 13:18:50;;;;;;;1.33;1.23;;;25.50;26.30;;;;;;5154329;27;20050;-67
2021/12/18 13:21:24;;;;;;;0.90;0.85;;;25.50;26.30;;;;;;5155114;27;20050;-66
2021/12/18 13:24:03;;;;;;;1.02;0.90;;;25.50;26.30;;;;;;5154577;27;20042;-66
2021/12/18 13:26:44;;;;;;;1.13;0.98;;;25.50;26.30;;;;;;5151866;27;20055;-66
2021/12/18 13:29:13;;;;;;;0.85;0.80;;;25.50;26.30;;;;;;5138673;27;20100;-67
2021/12/18 13:31:52;;;;;;;0.95;0.95;;;25.50;26.30;;;;;;5155067;27;20099;-66
2021/12/18 13:34:26;;;;;;;1.70;1.05;;;25.40;26.30;;;;;;5153753;27;20049;-67
2021/12/18 13:37:01;;;;;;;0.82;0.82;;;25.50;26.30;;;;;;5128836;27;20070;-66
2021/12/18 13:39:33;;;;;;;0.80;0.80;;;25.40;26.30;;;;;;5112845;28;20097;-67
2021/12/18 13:42:11;;;;;;;1.00;1.00;;;25.40;26.20;;;;;;5113299;28;20044;-66
2021/12/18 13:44:45;;;;;;;0.70;0.70;;;25.40;26.30;;;;;;5112026;28;20075;-67
2021/12/18 13:47:15;;;;;;;1.05;0.95;;;25.40;26.30;;;;;;5110998;28;20098;-67
2021/12/18 13:49:43;;;;;;;0.80;0.80;;;25.40;26.30;;;;;;5112834;28;20097;-66
2021/12/18 13:52:36;;;;;;;0.75;0.75;;;25.40;26.20;;;;;;5113247;28;20546;-66
2021/12/18 13:55:21;;;;;;;1.20;0.90;;;25.40;26.30;;;;;;5103443;27;20093;-66
2021/12/18 13:58:04;;;;;;;2.72;0.80;;;25.40;26.30;;;;;;5132254;27;20051;-66
2021/12/18 14:00:47;;;;;;;1.10;1.10;;;25.40;26.30;;;;;;5133780;27;20104;-67
2021/12/18 14:03:20;;;;;;;0.80;0.80;;;25.40;26.20;;;;;;5133179;27;20043;-68
2021/12/18 14:05:48;;;;;;;1.13;1.05;;;25.40;26.30;;;;;;5131002;27;20047;-66
2021/12/18 14:08:17;;;;;;;1.10;0.93;;;25.30;26.20;;;;;;5133169;27;20051;-69
2021/12/18 14:10:49;;;;;;;0.95;0.80;;;25.30;26.30;;;;;;5133041;27;20043;-66
2021/12/18 14:13:17;;;;;;;0.98;0.98;;;25.30;26.70;;;;;;5099060;27;20047;-66
2021/12/18 14:15:45;;;;;;;0.98;0.98;;;25.30;26.30;;;;;;5112778;27;20435;-66
2021/12/18 14:18:33;;;;;;;1.23;0.88;;;25.30;26.30;;;;;;5131596;27;20076;-66
2021/12/18 14:21:01;;;;;;;1.10;1.00;;;25.30;26.20;;;;;;5130638;27;20047;-66
2021/12/18 14:23:30;;;;;;;0.85;0.82;;;25.30;26.20;;;;;;5132990;27;20075;-66
2021/12/18 14:26:20;;;;;;;1.00;0.97;;;25.30;26.20;;;;;;5130515;27;20054;-66
2021/12/18 14:28:49;;;;;;;0.87;0.87;;;25.20;26.10;;;;;;5133176;27;20332;-66
2021/12/18 14:31:27;;;;;;;0.93;0.93;;;25.20;26.20;;;;;;5133151;27;20051;-66
2021/12/18 14:34:01;;;;;;;0.77;0.77;;;25.20;26.20;;;;;;5132513;27;20552;-66
2021/12/18 14:36:47;;;;;;;1.10;0.98;;;25.20;26.30;;;;;;5136144;27;20050;-67
2021/12/18 14:39:23;;;;;;;0.80;0.80;;;25.20;26.40;;;;;;5153418;27;20039;-66
2021/12/18 14:41:56;;;;;;;0.90;0.90;;;25.10;26.30;;;;;;5153678;27;20452;-66
2021/12/18 14:44:25;;;;;;;1.00;0.90;;;25.10;26.40;;;;;;5152552;27;20091;-66
2021/12/18 14:47:12;;;;;;;1.42;1.17;;;25.10;26.40;;;;;;5151443;27;20095;-66
2021/12/18 14:50:18;;;;;;;0.98;0.85;;;25.10;26.40;;;;;;5152960;27;20050;-66
2021/12/18 14:53:12;;;;;;;2.03;1.00;;;25.10;26.40;;;;;;5153398;27;20054;-66